Time;durP1;ratioP1;P1;durP2;ratioP2;P2;SDS_P1;SDS_P2;PMS_P1;PMS_P2;Temp;Humidity;BMP_temperature;BMP_pressure;BME280_temperature;BME280_humidity;BME280_pressure;Samples;Min_cycle;Max_cycle;Signal;HPM_P1;HPM_P2
2022/08/28 00:02:23;;;;;;;9.63;4.28;;;;;;;18.02;60.29;101810.50;5094146;28;20032;-79
2022/08/28 00:04:49;;;;;;;8.95;3.92;;;;;;;18.01;60.39;101819.44;5094251;28;20032;-79
2022/08/28 00:07:15;;;;;;;12.73;4.32;;;;;;;17.86;60.92;101798.13;5094160;28;20461;-80
2022/08/28 00:09:40;;;;;;;10.30;4.55;;;;;;;17.78;60.84;101805.28;5094131;28;20028;-79
2022/08/28 00:12:06;;;;;;;9.55;4.30;;;;;;;17.80;60.85;101791.91;5093896;28;20401;-79
2022/08/28 00:14:31;;;;;;;9.30;4.13;;;;;;;17.87;61.10;101809.72;5094239;28;20024;-79
2022/08/28 00:16:57;;;;;;;12.23;4.18;;;;;;;17.88;60.95;101817.72;5093739;28;20028;-79
2022/08/28 00:19:23;;;;;;;10.48;4.10;;;;;;;17.80;61.19;101807.94;5093922;28;20055;-80
2022/08/28 00:21:49;;;;;;;10.93;4.50;;;;;;;17.81;60.78;101815.94;5094009;28;20035;-79
2022/08/28 00:24:15;;;;;;;12.02;4.20;;;;;;;17.77;60.99;101811.50;5093855;28;20036;-79
2022/08/28 00:29:25;;;;;;;13.68;4.63;;;;;;;17.80;61.32;101811.50;5093349;28;20499;-79
2022/08/28 00:31:51;;;;;;;11.73;4.32;;;;;;;17.66;61.46;101808.84;5093289;28;20032;-79
2022/08/28 00:34:16;;;;;;;11.65;4.10;;;;;;;17.59;61.65;101804.41;5075417;28;20579;-79
2022/08/28 00:36:42;;;;;;;12.27;4.70;;;;;;;17.58;61.42;101799.06;5093379;28;20032;-79
2022/08/28 00:39:08;;;;;;;11.80;4.40;;;;;;;17.48;61.79;101798.22;5093479;28;20068;-79
2022/08/28 00:41:34;;;;;;;15.55;4.50;;;;;;;17.59;61.67;101825.78;5093378;28;20031;-79
2022/08/28 00:44:17;;;;;;;12.32;4.53;;;;;;;17.65;61.39;101822.22;5093693;28;20514;-80
2022/08/28 00:46:45;;;;;;;11.30;4.28;;;;;;;17.62;61.61;101812.41;5093627;28;20047;-79
2022/08/28 00:49:12;;;;;;;17.88;4.90;;;;;;;17.52;61.68;101818.69;5093531;28;20063;-79
2022/08/28 00:54:23;;;;;;;14.65;4.50;;;;;;;17.55;61.90;101821.34;5093520;28;20078;-80
2022/08/28 00:56:50;;;;;;;11.88;4.45;;;;;;;17.46;61.48;101791.97;5092868;28;20394;-80
2022/08/28 00:59:19;;;;;;;9.93;4.20;;;;;;;17.57;61.47;101818.69;5093232;28;20028;-80
2022/08/28 01:01:47;;;;;;;13.50;4.57;;;;;;;17.54;61.95;101822.22;5093200;28;20051;-79
2022/08/28 01:04:15;;;;;;;11.73;4.55;;;;;;;17.46;61.65;101819.56;5093037;28;20039;-80
2022/08/28 01:06:43;;;;;;;10.30;4.35;;;;;;;17.42;62.19;101830.28;5093106;28;20024;-79
2022/08/28 01:09:10;;;;;;;11.82;4.63;;;;;;;17.43;62.06;101816.94;5093164;28;20390;-80
2022/08/28 01:11:39;;;;;;;16.63;4.88;;;;;;;17.46;62.20;101843.63;5093075;28;20032;-80
2022/08/28 01:14:05;;;;;;;11.85;4.78;;;;;;;17.44;62.09;101840.09;5093049;28;20085;-80
2022/08/28 01:16:31;;;;;;;17.17;4.82;;;;;;;17.44;62.12;101844.53;5093255;28;20037;-79
2022/08/28 01:18:59;;;;;;;12.57;4.72;;;;;;;17.41;61.99;101828.50;5093549;28;20028;-79
2022/08/28 01:21:29;;;;;;;12.80;4.65;;;;;;;17.49;61.83;101843.63;5093039;28;20036;-79
2022/08/28 01:24:07;;;;;;;11.82;4.50;;;;;;;17.28;62.13;101817.81;5074839;28;20454;-79
2022/08/28 01:26:32;;;;;;;12.93;4.65;;;;;;;17.34;62.62;101837.41;5092975;28;20028;-79
2022/08/28 01:28:59;;;;;;;11.88;4.80;;;;;;;17.35;62.53;101832.09;5092896;28;20035;-79
2022/08/28 01:31:27;;;;;;;11.77;4.60;;;;;;;17.31;62.57;101835.66;5093169;28;20478;-79
2022/08/28 01:33:52;;;;;;;8.88;4.22;;;;;;;17.23;62.78;101832.97;5092760;28;20032;-79
2022/08/28 01:36:18;;;;;;;11.32;4.45;;;;;;;17.25;62.73;101827.63;5092772;28;20102;-80
2022/08/28 01:38:48;;;;;;;14.07;4.32;;;;;;;17.19;63.11;101839.22;5092691;28;20435;-80
2022/08/28 01:41:14;;;;;;;12.35;4.60;;;;;;;17.12;63.11;101826.75;5093680;28;20119;-80
2022/08/28 01:43:40;;;;;;;12.40;4.38;;;;;;;17.17;63.31;101832.09;5096934;28;20063;-80
2022/08/28 01:46:06;;;;;;;13.88;4.07;;;;;;;17.12;63.49;101825.84;5096342;28;20073;-80
2022/08/28 01:48:35;;;;;;;11.80;4.25;;;;;;;17.04;63.51;101833.88;5096698;28;20032;-80
2022/08/28 01:51:01;;;;;;;14.23;4.72;;;;;;;17.03;63.87;101834.75;5096311;28;20538;-80
2022/08/28 01:53:28;;;;;;;12.95;4.68;;;;;;;16.89;64.29;101832.09;5096635;28;20431;-80
2022/08/28 01:55:55;;;;;;;12.77;4.35;;;;;;;16.90;64.64;101855.22;5078375;28;20027;-80
2022/08/28 01:58:21;;;;;;;8.82;4.10;;;;;;;16.93;64.56;101849.00;5096274;28;20020;-80
2022/08/28 02:00:47;;;;;;;12.48;4.30;;;;;;;16.92;64.44;101849.91;5096359;28;20036;-80
2022/08/28 02:03:12;;;;;;;13.57;4.28;;;;;;;16.83;64.70;101834.78;5096393;28;20059;-80
2022/08/28 02:05:38;;;;;;;11.25;4.10;;;;;;;16.89;64.61;101849.91;5096196;28;20024;-79
2022/08/28 02:08:06;;;;;;;14.73;4.10;;;;;;;16.80;64.82;101841.88;5096496;28;20073;-79
2022/08/28 02:10:34;;;;;;;11.45;4.30;;;;;;;16.82;65.35;101858.78;5096202;28;20412;-79
2022/08/28 02:13:01;;;;;;;13.77;4.53;;;;;;;16.63;65.34;101841.81;5096337;28;20486;-79
2022/08/28 02:15:28;;;;;;;9.77;4.05;;;;;;;16.66;65.53;101857.81;5096335;28;20101;-79
2022/08/28 02:17:54;;;;;;;9.77;4.15;;;;;;;16.70;65.42;101862.28;5096050;28;20066;-79
2022/08/28 02:20:21;;;;;;;13.43;4.40;;;;;;;16.58;65.70;101862.28;5078726;28;20039;-78
2022/08/28 02:22:47;;;;;;;16.23;4.50;;;;;;;16.57;65.80;101855.13;5096070;28;20031;-79
2022/08/28 02:25:13;;;;;;;11.20;4.00;;;;;;;16.58;66.07;101867.63;5095909;28;20032;-79
2022/08/28 02:27:39;;;;;;;10.20;4.22;;;;;;;16.51;65.87;101850.69;5095991;28;20063;-79
2022/08/28 02:30:07;;;;;;;11.48;4.03;;;;;;;16.52;65.94;101856.00;5095831;28;20187;-79
2022/08/28 02:32:33;;;;;;;13.52;4.50;;;;;;;16.46;66.17;101860.47;5095964;28;20461;-78
2022/08/28 02:34:58;;;;;;;13.73;4.40;;;;;;;16.45;66.15;101864.91;5095805;28;20035;-78
2022/08/28 02:37:24;;;;;;;14.60;4.45;;;;;;;16.44;66.20;101862.22;5096040;28;20031;-79
2022/08/28 02:39:53;;;;;;;12.60;4.60;;;;;;;16.39;66.27;101862.22;5095566;28;20458;-79
2022/08/28 02:42:19;;;;;;;13.05;4.35;;;;;;;16.36;66.21;101855.97;5095806;28;20024;-78
2022/08/28 02:44:44;;;;;;;11.88;4.43;;;;;;;16.34;66.48;101855.97;5095597;28;20507;-79
2022/08/28 02:47:10;;;;;;;11.38;4.20;;;;;;;16.28;66.37;101843.53;5095429;28;20032;-79
2022/08/28 02:49:35;;;;;;;12.75;4.28;;;;;;;16.39;66.34;101869.31;5095753;28;20481;-79
2022/08/28 02:52:00;;;;;;;11.05;4.03;;;;;;;16.38;66.58;101868.44;5095629;28;20028;-79
2022/08/28 02:54:26;;;;;;;17.42;4.22;;;;;;;16.33;66.46;101843.53;5094395;28;20035;-79
2022/08/28 02:56:53;;;;;;;10.10;4.00;;;;;;;16.47;66.15;101865.78;5095272;28;20394;-79
2022/08/28 02:59:18;;;;;;;11.48;4.00;;;;;;;16.35;66.31;101859.53;5095464;28;20488;-79
2022/08/28 03:01:44;;;;;;;9.85;3.88;;;;;;;16.28;66.55;101846.19;5095405;28;20032;-79
2022/08/28 03:04:09;;;;;;;11.38;4.00;;;;;;;16.39;66.39;101864.88;5095405;28;20040;-79
2022/08/28 03:06:34;;;;;;;14.30;4.50;;;;;;;16.29;66.60;101863.06;5095381;28;20038;-79
2022/08/28 03:09:00;;;;;;;10.77;4.07;;;;;;;16.24;66.80;101856.84;5095253;28;20028;-79
2022/08/28 03:11:26;;;;;;;12.25;4.10;;;;;;;16.21;66.39;101851.50;5095640;28;20024;-78
2022/08/28 03:13:52;;;;;;;12.75;4.20;;;;;;;16.15;66.97;101860.38;5094862;28;20038;-79
2022/08/28 03:16:17;;;;;;;12.82;4.45;;;;;;;16.16;67.19;101864.81;5094906;28;20032;-79
2022/08/28 03:18:43;;;;;;;14.95;4.30;;;;;;;16.05;66.91;101853.19;5095023;28;20212;-79
2022/08/28 03:21:09;;;;;;;12.30;4.32;;;;;;;16.07;67.10;101855.88;5095105;28;20028;-79
2022/08/28 03:23:36;;;;;;;15.52;4.05;;;;;;;16.14;67.16;101871.00;5094931;28;20085;-79
2022/08/28 03:26:08;;;;;;;12.02;4.35;;;;;;;16.04;67.24;101856.75;5094829;28;20040;-78
2022/08/28 03:28:48;;;;;;;10.13;3.90;;;;;;;16.03;67.02;101862.97;5094886;28;20481;-78
2022/08/28 03:31:18;;;;;;;13.27;4.18;;;;;;;16.10;67.36;101885.22;5094811;28;20097;-79
2022/08/28 03:33:44;;;;;;;13.00;4.32;;;;;;;16.13;67.36;101882.56;5094803;28;20131;-79
2022/08/28 03:36:12;;;;;;;9.00;4.07;;;;;;;16.10;67.36;101877.22;5094570;28;20081;-79
2022/08/28 03:38:37;;;;;;;11.60;3.97;;;;;;;16.09;66.99;101864.78;5094787;28;20031;-79
2022/08/28 03:41:08;;;;;;;9.95;4.10;;;;;;;16.10;67.31;101883.47;5094452;28;20382;-79
2022/08/28 03:43:33;;;;;;;11.60;3.72;;;;;;;16.16;66.81;101880.81;5094591;28;20111;-78
2022/08/28 03:46:02;;;;;;;10.63;3.72;;;;;;;16.17;66.88;101887.03;5094594;28;20068;-78
2022/08/28 03:48:31;;;;;;;12.10;4.20;;;;;;;16.03;67.20;101876.31;5076226;28;20097;-78
2022/08/28 03:50:59;;;;;;;13.13;4.10;;;;;;;16.16;66.62;101888.81;5094491;28;20050;-78
2022/08/28 03:53:27;;;;;;;12.60;4.13;;;;;;;16.14;66.64;101873.66;5094395;28;20036;-79
2022/08/28 03:55:53;;;;;;;16.67;4.32;;;;;;;16.13;66.93;101886.13;5094272;28;20039;-79
2022/08/28 03:58:19;;;;;;;14.43;4.30;;;;;;;16.01;66.89;101883.38;5093828;28;20028;-79
2022/08/28 04:00:45;;;;;;;11.70;4.30;;;;;;;16.21;66.62;101888.81;5094236;28;20026;-79
2022/08/28 04:03:13;;;;;;;8.57;4.18;;;;;;;16.07;67.05;101885.22;5094322;28;20039;-79
2022/08/28 04:05:43;;;;;;;8.40;3.97;;;;;;;16.02;66.91;101877.19;5075468;28;20036;-79
2022/08/28 04:08:12;;;;;;;13.98;4.45;;;;;;;15.90;67.35;101885.13;5094269;28;20035;-79
2022/08/28 04:10:38;;;;;;;11.13;4.13;;;;;;;15.90;67.64;101898.47;5093904;28;20020;-79
2022/08/28 04:13:03;;;;;;;7.78;4.03;;;;;;;15.76;67.71;101885.06;5094227;28;20031;-79
2022/08/28 04:15:28;;;;;;;7.40;4.10;;;;;;;15.77;68.06;101898.38;5093726;28;20058;-79
2022/08/28 04:17:55;;;;;;;10.15;3.90;;;;;;;15.78;68.17;101900.16;5093922;28;20035;-78
2022/08/28 04:20:20;;;;;;;9.50;3.90;;;;;;;15.76;68.17;101901.03;5093820;28;20118;-78
2022/08/28 04:22:47;;;;;;;10.65;4.40;;;;;;;15.59;68.55;101881.31;5093710;28;20093;-78
2022/08/28 04:25:13;;;;;;;9.68;4.00;;;;;;;15.57;68.82;101897.31;5094128;28;20146;-79
2022/08/28 04:27:39;;;;;;;12.35;4.05;;;;;;;15.60;68.51;101897.34;5093507;28;20039;-79
2022/08/28 04:30:05;;;;;;;13.48;3.97;;;;;;;15.51;68.71;101886.63;5093786;28;20040;-79
2022/08/28 04:32:34;;;;;;;12.27;4.50;;;;;;;15.45;68.92;101898.09;5093594;28;20063;-78
2022/08/28 04:34:59;;;;;;;11.30;4.18;;;;;;;15.51;69.00;101910.59;5093559;28;20028;-78
2022/08/28 04:37:25;;;;;;;10.00;3.97;;;;;;;15.52;69.09;101912.38;5093736;28;20106;-78
2022/08/28 04:39:51;;;;;;;11.82;4.40;;;;;;;15.51;69.30;101919.47;5093262;28;20397;-79
2022/08/28 04:42:16;;;;;;;7.47;4.00;;;;;;;15.47;69.08;101896.38;5093464;28;20509;-79
2022/08/28 04:44:42;;;;;;;11.75;4.55;;;;;;;15.52;68.99;101920.38;5092995;28;20036;-79
2022/08/28 04:47:07;;;;;;;9.52;4.13;;;;;;;15.47;69.24;101914.13;5093147;28;20488;-79
2022/08/28 04:49:34;;;;;;;10.57;4.05;;;;;;;15.42;69.21;101918.53;5092903;28;20024;-79
2022/08/28 04:51:59;;;;;;;12.82;4.10;;;;;;;15.38;69.22;101919.38;5093072;28;20028;-79
2022/08/28 04:54:25;;;;;;;12.50;3.95;;;;;;;15.23;69.48;101898.81;5092502;28;20425;-79
2022/08/28 04:56:50;;;;;;;12.63;4.28;;;;;;;15.38;69.27;101927.38;5092990;28;20078;-79
2022/08/28 04:59:16;;;;;;;9.98;4.30;;;;;;;15.33;69.68;101918.41;5092561;28;20034;-79
2022/08/28 05:01:42;;;;;;;9.98;3.72;;;;;;;15.26;69.63;101918.38;5092606;28;20080;-79
2022/08/28 05:04:08;;;;;;;10.45;3.85;;;;;;;15.26;69.65;101926.38;5092911;28;20032;-79
2022/08/28 05:06:33;;;;;;;12.50;4.50;;;;;;;15.25;69.46;101921.94;5092562;28;20028;-79
2022/08/28 05:09:01;;;;;;;8.45;3.85;;;;;;;15.26;69.49;101918.38;5092593;28;20363;-79
2022/08/28 05:11:29;;;;;;;14.27;4.38;;;;;;;15.35;69.44;101932.66;5092949;28;20028;-79
2022/08/28 05:13:54;;;;;;;10.40;3.85;;;;;;;15.34;69.38;101937.09;5092796;28;20039;-79
2022/08/28 05:16:20;;;;;;;11.73;4.20;;;;;;;15.31;69.70;101942.38;5093405;28;20068;-80
2022/08/28 05:18:47;;;;;;;11.32;4.50;;;;;;;15.22;69.76;101945.88;5097019;28;20040;-79
2022/08/28 05:21:19;;;;;;;12.48;4.50;;;;;;;15.04;69.79;101913.75;5096660;28;20028;-79
2022/08/28 05:23:45;;;;;;;;;;;;;;;15.35;68.25;101940.66;5097011;28;20024;-80
2022/08/28 05:26:13;;;;;;;12.38;4.28;;;;;;;15.11;70.73;101939.53;5096600;28;20400;-79
2022/08/28 05:28:39;;;;;;;10.10;4.13;;;;;;;15.14;70.27;101947.56;5096477;28;20036;-79
2022/08/28 05:31:15;;;;;;;15.18;4.32;;;;;;;15.21;70.09;101952.06;5096622;28;20120;-79
2022/08/28 05:33:42;;;;;;;11.07;4.32;;;;;;;15.22;70.24;101956.50;5096360;28;20060;-79
2022/08/28 05:36:07;;;;;;;9.52;4.13;;;;;;;15.16;70.46;101952.88;5096554;28;20028;-78
2022/08/28 05:38:33;;;;;;;17.98;4.78;;;;;;;15.17;70.57;101944.03;5096579;28;20040;-79
2022/08/28 05:40:59;;;;;;;11.38;4.43;;;;;;;15.16;71.03;101960.88;5097148;28;20397;-79
2022/08/28 05:43:25;;;;;;;11.55;4.57;;;;;;;15.02;70.75;101940.34;5097213;28;20103;-79
2022/08/28 05:46:09;;;;;;;12.93;4.50;;;;;;;15.22;70.51;101956.50;5098049;28;20048;-79
2022/08/28 05:48:36;;;;;;;10.73;4.07;;;;;;;15.18;70.92;101959.13;5096864;28;20081;-79
2022/08/28 05:51:07;;;;;;;15.45;4.43;;;;;;;15.21;71.29;101961.84;5097878;28;20108;-79
2022/08/28 05:53:38;;;;;;;11.63;4.25;;;;;;;15.12;71.08;101946.66;5096632;28;20115;-80
2022/08/28 05:56:04;;;;;;;10.68;4.20;;;;;;;15.26;71.13;101961.00;5096197;28;20051;-80
2022/08/28 05:58:30;;;;;;;9.90;4.35;;;;;;;15.36;70.78;101959.28;5095817;28;20474;-79
2022/08/28 06:01:04;;;;;;;11.45;4.53;;;;;;;15.58;70.61;101968.34;5096012;28;20063;-79
2022/08/28 06:03:29;;;;;;;13.88;4.35;;;;;;;15.76;70.55;101968.56;5096215;28;20477;-80
2022/08/28 06:05:54;;;;;;;12.32;4.55;;;;;;;15.94;70.17;101959.78;5095949;28;20089;-80
2022/08/28 06:08:21;;;;;;;14.23;4.85;;;;;;;16.07;69.76;101959.88;5078117;28;20029;-79
2022/08/28 06:10:48;;;;;;;12.18;4.32;;;;;;;16.28;69.16;101974.22;5095598;28;20477;-79
2022/08/28 06:13:13;;;;;;;11.18;4.68;;;;;;;16.50;68.86;101976.97;5095785;28;20028;-79
2022/08/28 06:15:45;;;;;;;10.65;4.70;;;;;;;16.65;68.15;101970.81;5095373;28;20032;-79
2022/08/28 06:18:12;;;;;;;9.95;4.70;;;;;;;16.77;67.70;101963.75;5096045;28;20062;-79
2022/08/28 06:20:42;;;;;;;14.57;4.85;;;;;;;17.02;66.92;101977.19;5095741;28;20036;-79
2022/08/28 06:23:14;;;;;;;13.80;4.93;;;;;;;17.05;66.68;101952.28;5095723;28;20036;-79
2022/08/28 06:25:47;;;;;;;12.43;4.70;;;;;;;17.25;66.36;101970.09;5095638;28;20032;-79
2022/08/28 06:28:22;;;;;;;10.63;4.55;;;;;;;17.46;66.14;101963.00;5095229;28;20036;-79
2022/08/28 06:30:48;;;;;;;13.43;4.45;;;;;;;17.62;65.12;101972.78;5095617;28;20032;-79
2022/08/28 06:33:17;;;;;;;12.48;4.70;;;;;;;17.71;65.10;101971.91;5095527;28;20046;-79
2022/08/28 06:35:46;;;;;;;13.77;4.32;;;;;;;17.92;63.98;101982.59;5077094;28;20082;-79
2022/08/28 06:38:13;;;;;;;10.02;4.05;;;;;;;18.07;64.06;101967.41;5095236;28;20028;-79
2022/08/28 06:40:41;;;;;;;9.25;3.97;;;;;;;18.21;63.09;101985.22;5077053;28;20035;-79
2022/08/28 06:43:07;;;;;;;12.98;4.13;;;;;;;18.31;62.84;101972.69;5095126;28;20043;-80
2022/08/28 06:45:32;;;;;;;11.60;4.22;;;;;;;18.58;61.56;101989.56;5095445;28;20052;-79
2022/08/28 06:47:58;;;;;;;13.82;4.35;;;;;;;18.70;61.94;101977.03;5094999;28;20398;-79
2022/08/28 06:50:23;;;;;;;11.40;4.13;;;;;;;18.87;60.52;101995.69;5095270;28;20032;-79
2022/08/28 06:52:48;;;;;;;12.75;4.35;;;;;;;18.97;60.32;101988.50;5095000;28;20105;-79
2022/08/28 06:55:14;;;;;;;13.32;4.20;;;;;;;19.23;59.13;101997.28;5094842;28;20043;-78
2022/08/28 06:57:39;;;;;;;14.52;4.05;;;;;;;19.44;58.72;101998.94;5076320;28;20027;-79
2022/08/28 07:00:05;;;;;;;11.07;4.13;;;;;;;19.74;57.49;101991.53;5076791;28;20032;-79
2022/08/28 07:02:31;;;;;;;13.05;3.75;;;;;;;19.90;57.14;101993.19;5094932;28;20035;-79
2022/08/28 07:04:56;;;;;;;13.38;3.75;;;;;;;19.94;56.75;101994.06;5094854;28;20096;-80
2022/08/28 07:07:22;;;;;;;10.18;3.50;;;;;;;19.97;55.53;101969.88;5076864;28;20127;-79
2022/08/28 07:09:47;;;;;;;12.80;3.85;;;;;;;20.16;55.58;101986.66;5076320;28;20040;-81
2022/08/28 07:12:14;;;;;;;8.63;3.40;;;;;;;20.41;55.36;101987.28;5094664;28;20418;-79
2022/08/28 07:14:40;;;;;;;10.57;3.40;;;;;;;20.72;54.39;101985.13;5094752;28;20029;-80
2022/08/28 07:17:06;;;;;;;10.05;3.22;;;;;;;20.98;53.59;101993.75;5094679;28;20053;-80
2022/08/28 07:19:32;;;;;;;12.18;3.60;;;;;;;21.21;52.88;101992.53;5094542;28;20115;-80
2022/08/28 07:21:58;;;;;;;9.52;3.20;;;;;;;21.34;52.14;101986.06;5094528;28;20442;-80
2022/08/28 07:24:25;;;;;;;10.43;3.33;;;;;;;21.59;51.53;101988.38;5094595;28;20035;-80
2022/08/28 07:26:51;;;;;;;9.57;3.30;;;;;;;21.68;50.62;101988.22;5094578;28;20381;-78
2022/08/28 07:29:18;;;;;;;10.45;3.25;;;;;;;21.65;49.97;101993.63;5094724;28;20039;-78
2022/08/28 07:31:47;;;;;;;12.25;3.30;;;;;;;21.47;50.40;101984.09;5094426;28;20408;-77
2022/08/28 07:34:14;;;;;;;7.88;2.97;;;;;;;21.66;50.62;101998.97;5094616;28;20115;-80
2022/08/28 07:36:41;;;;;;;12.35;3.35;;;;;;;21.71;49.63;101994.44;5094511;28;20138;-79
2022/08/28 07:39:07;;;;;;;12.32;3.00;;;;;;;21.93;50.10;102002.13;5093690;28;20177;-82
2022/08/28 07:41:36;;;;;;;10.40;3.20;;;;;;;22.13;49.11;101991.91;5094458;28;20111;-80
2022/08/28 07:46:46;;;;;;;6.90;3.10;;;;;;;22.56;47.74;102009.00;5093990;28;20059;-80
2022/08/28 07:49:15;;;;;;;10.35;3.42;;;;;;;22.44;47.44;102011.06;5094078;28;20392;-80
2022/08/28 07:51:41;;;;;;;8.63;3.00;;;;;;;22.49;47.63;101995.69;5094051;28;20031;-80
2022/08/28 07:54:06;;;;;;;8.23;2.85;;;;;;;22.63;46.73;102007.97;5075897;28;20028;-80
2022/08/28 07:56:32;;;;;;;7.82;2.67;;;;;;;22.56;46.93;102009.00;5094264;28;20107;-80
2022/08/28 07:59:02;;;;;;;10.18;2.70;;;;;;;22.43;46.23;101995.78;5093761;28;20035;-80
2022/08/28 08:01:29;;;;;;;12.70;2.78;;;;;;;22.59;46.38;102017.94;5094446;28;20032;-80
2022/08/28 08:03:54;;;;;;;9.52;3.13;;;;;;;22.74;45.80;101995.19;5093978;28;20089;-80
2022/08/28 08:06:20;;;;;;;8.02;2.67;;;;;;;22.77;45.72;102010.38;5094000;28;20031;-80
2022/08/28 08:08:46;;;;;;;8.82;3.00;;;;;;;22.79;45.13;102022.91;5093902;28;20078;-80
2022/08/28 08:11:16;;;;;;;7.75;2.70;;;;;;;22.91;45.37;102027.16;5093909;28;20036;-80
2022/08/28 08:13:43;;;;;;;8.07;2.70;;;;;;;23.13;45.01;102023.09;5093763;28;20024;-80
2022/08/28 08:16:12;;;;;;;6.68;2.58;;;;;;;23.45;44.20;102016.94;5075347;28;20048;-78
2022/08/28 08:18:40;;;;;;;8.77;2.72;;;;;;;23.70;43.73;102021.75;5093129;28;20389;-78
2022/08/28 08:21:08;;;;;;;10.50;3.28;;;;;;;23.73;43.16;102022.56;5093495;28;20039;-78
2022/08/28 08:23:34;;;;;;;12.45;2.80;;;;;;;23.78;42.53;102018.88;5093338;28;20023;-78
2022/08/28 08:26:04;;;;;;;8.50;2.78;;;;;;;23.61;42.06;102024.66;5093159;28;20063;-79
2022/08/28 08:28:31;;;;;;;9.25;2.72;;;;;;;23.68;42.83;102027.22;5093225;28;20097;-78
2022/08/28 08:31:07;;;;;;;10.75;2.78;;;;;;;23.52;42.80;102024.88;5093030;28;20055;-78
2022/08/28 08:33:33;;;;;;;7.68;2.70;;;;;;;23.25;43.09;102024.59;5092994;28;20485;-78
2022/08/28 08:35:59;;;;;;;7.68;2.67;;;;;;;22.88;43.32;102016.44;5093143;28;20040;-80
2022/08/28 08:38:27;;;;;;;9.95;2.78;;;;;;;22.84;43.62;102030.91;5093369;28;20054;-79
2022/08/28 08:40:53;;;;;;;8.48;2.63;;;;;;;22.97;43.59;102033.31;5093502;28;20534;-78
2022/08/28 08:43:20;;;;;;;6.82;2.70;;;;;;;23.31;42.72;102027.16;5093219;28;20036;-79
2022/08/28 08:45:47;;;;;;;9.45;2.67;;;;;;;23.54;41.93;102006.84;5092516;28;20059;-78
2022/08/28 08:48:34;;;;;;;10.30;2.42;;;;;;;23.71;42.11;102023.53;5093080;28;20036;-78
2022/08/28 08:51:19;;;;;;;7.35;2.55;;;;;;;23.98;41.94;102028.25;5074028;28;20491;-79
2022/08/28 08:54:01;;;;;;;8.55;2.70;;;;;;;24.54;40.66;102018.63;5092889;28;20084;-78
2022/08/28 08:56:27;;;;;;;7.00;2.55;;;;;;;24.82;39.71;102018.72;5092757;28;20384;-79
2022/08/28 08:58:54;;;;;;;11.90;2.78;;;;;;;25.02;39.41;102020.81;5092861;28;20051;-78
2022/08/28 09:01:27;;;;;;;7.25;3.00;;;;;;;25.15;38.62;102012.31;5092764;28;20039;-78
2022/08/28 09:04:30;;;;;;;8.27;2.67;;;;;;;25.21;39.71;102017.50;5092860;28;20039;-78
2022/08/28 09:07:17;;;;;;;6.97;2.30;;;;;;;25.61;39.05;102018.03;5093905;28;20024;-78
2022/08/28 09:09:48;;;;;;;8.35;2.78;;;;;;;25.55;37.89;102021.84;5093443;28;20028;-80
2022/08/28 09:12:18;;;;;;;9.02;2.50;;;;;;;25.20;38.14;102010.34;5092812;28;20027;-78
2022/08/28 09:14:49;;;;;;;5.75;2.45;;;;;;;25.31;38.18;102026.25;5092554;28;20032;-78
2022/08/28 09:17:18;;;;;;;7.47;2.67;;;;;;;25.48;37.84;102013.03;5092660;28;20028;-78
2022/08/28 09:19:44;;;;;;;6.95;2.75;;;;;;;25.48;38.02;102021.16;5092845;28;20024;-78
2022/08/28 09:22:09;;;;;;;8.82;2.60;;;;;;;25.63;37.25;102011.63;5092660;28;20099;-78
2022/08/28 09:24:37;;;;;;;5.40;2.20;;;;;;;25.96;36.53;102025.00;5092454;28;20082;-78
2022/08/28 09:27:04;;;;;;;6.97;2.50;;;;;;;26.17;36.22;102026.09;5092306;28;20028;-78
2022/08/28 09:29:32;;;;;;;5.60;2.42;;;;;;;26.39;35.57;102024.34;5092404;28;20529;-77
2022/08/28 09:32:13;;;;;;;7.93;2.63;;;;;;;26.59;35.30;102020.03;5092330;28;20040;-78
2022/08/28 09:34:56;;;;;;;9.25;2.40;;;;;;;26.74;34.75;102018.59;5092401;28;20157;-78
2022/08/28 09:37:28;;;;;;;7.53;2.50;;;;;;;26.93;34.40;102023.22;5092835;28;20032;-80
2022/08/28 09:40:13;;;;;;;12.37;2.60;;;;;;;27.19;34.83;102007.78;5093103;28;20032;-78
2022/08/28 09:45:24;;;;;;;6.80;2.53;;;;;;;27.53;32.99;102020.84;5092855;28;20058;-78
2022/08/28 09:47:54;;;;;;;8.75;2.50;;;;;;;27.41;33.01;102007.81;5092303;28;20385;-78
2022/08/28 09:50:41;;;;;;;6.70;2.30;;;;;;;27.09;34.57;102009.06;5092392;28;20477;-78
2022/08/28 09:53:10;;;;;;;5.88;2.28;;;;;;;27.01;34.63;102019.34;5092437;28;20538;-78
2022/08/28 09:55:51;;;;;;;10.82;2.95;;;;;;;26.58;33.84;102019.16;5092354;28;20127;-78
2022/08/28 09:58:17;;;;;;;10.33;2.33;;;;;;;26.29;34.34;102017.47;5092365;28;20043;-78
2022/08/28 10:00:51;;;;;;;7.32;2.80;;;;;;;25.87;35.58;102018.09;5092189;28;20024;-78
2022/08/28 10:03:27;;;;;;;9.05;2.53;;;;;;;26.27;35.18;102013.97;5094566;28;20024;-78
2022/08/28 10:06:20;;;;;;;5.32;2.40;;;;;;;26.27;35.62;102005.81;5096407;28;20028;-78
2022/08/28 10:08:50;;;;;;;5.85;2.50;;;;;;;26.11;35.16;102021.75;5095927;28;20032;-78
2022/08/28 10:11:27;;;;;;;5.38;2.33;;;;;;;26.02;35.46;102021.19;5095934;28;20251;-78
2022/08/28 10:14:30;;;;;;;5.95;2.53;;;;;;;26.25;34.47;101999.56;5062165;28;20378;-78
2022/08/28 10:17:03;;;;;;;4.25;2.50;;;;;;;26.70;34.46;102013.28;5054368;28;20040;-78
2022/08/28 10:19:51;;;;;;;6.95;2.38;;;;;;;27.03;33.49;102018.34;5096003;28;20375;-78
2022/08/28 10:22:39;;;;;;;6.72;2.47;;;;;;;27.51;32.23;102020.06;5095964;28;20028;-78
2022/08/28 10:25:07;;;;;;;5.55;2.28;;;;;;;27.64;31.63;102018.59;5095787;28;20115;-78
2022/08/28 10:28:19;;;;;;;8.02;2.45;;;;;;;27.90;32.27;102014.78;5095602;28;20136;-78
2022/08/28 10:31:12;;;;;;;8.55;2.50;;;;;;;28.12;31.95;102006.56;5050615;28;20385;-78
2022/08/28 10:34:10;;;;;;;4.85;2.30;;;;;;;28.00;31.86;102011.66;5095469;28;20034;-78
2022/08/28 10:36:36;;;;;;;6.70;2.50;;;;;;;27.63;32.50;102007.81;5077438;28;20434;-78
2022/08/28 10:39:34;;;;;;;9.40;2.47;;;;;;;27.59;33.17;102017.03;5095488;28;20158;-78
2022/08/28 10:42:03;;;;;;;6.07;2.40;;;;;;;27.32;32.98;102005.44;5095439;28;20023;-78
2022/08/28 10:44:39;;;;;;;6.13;2.40;;;;;;;27.05;32.60;102011.03;5095302;28;20051;-78
2022/08/28 10:47:06;;;;;;;8.60;2.25;;;;;;;26.88;33.76;102003.53;5075309;28;20036;-78
2022/08/28 10:49:40;;;;;;;5.25;2.22;;;;;;;27.04;33.38;102005.66;5056933;28;20025;-78
2022/08/28 10:52:35;;;;;;;6.80;2.50;;;;;;;27.52;32.12;102001.94;5075009;28;20051;-81
2022/08/28 10:55:06;;;;;;;9.18;2.20;;;;;;;28.20;30.72;102007.13;5057278;28;20041;-81
2022/08/28 10:57:47;;;;;;;7.28;2.40;;;;;;;28.32;30.95;102000.25;5074478;28;20036;-80
2022/08/28 11:00:16;;;;;;;6.80;2.35;;;;;;;28.20;30.63;102014.41;5074915;28;20039;-80
2022/08/28 11:02:50;;;;;;;4.75;2.20;;;;;;;28.23;30.47;102013.41;5074737;28;20024;-80
2022/08/28 11:05:22;;;;;;;5.63;2.30;;;;;;;27.94;30.79;102002.84;5074936;28;20086;-80
2022/08/28 11:07:49;;;;;;;;;;;;;;;28.45;30.73;102001.50;5075286;28;20107;-81
2022/08/28 11:10:17;;;;;;;6.78;2.28;;;;;;;27.87;30.88;102008.59;5075222;28;20007;-80
2022/08/28 11:12:43;;;;;;;5.50;2.20;;;;;;;27.65;31.30;102012.19;5057415;28;20386;-80
2022/08/28 11:15:31;;;;;;;6.00;2.20;;;;;;;27.85;31.70;101996.94;5074154;28;20025;-80
2022/08/28 11:18:15;;;;;;;4.78;2.20;;;;;;;28.48;31.26;102008.66;5061445;28;20036;-80
2022/08/28 11:20:57;;;;;;;8.43;2.30;;;;;;;28.76;30.91;102004.63;5074907;28;20024;-80
2022/08/28 11:23:28;;;;;;;;;;;;;;;29.11;30.27;102009.28;5057978;28;20028;-78
2022/08/28 11:26:02;;;;;;;6.70;2.30;;;;;;;29.46;28.71;102009.38;5075160;28;19947;-80
2022/08/28 11:28:34;;;;;;;8.60;2.50;;;;;;;29.51;27.89;102006.44;5074519;28;20123;-80
2022/08/28 11:30:59;;;;;;;6.80;2.22;;;;;;;29.82;27.47;102012.13;5074612;28;20085;-80
2022/08/28 11:33:46;;;;;;;4.43;2.13;;;;;;;29.57;28.25;102014.34;5074886;28;20111;-81
2022/08/28 11:36:18;;;;;;;4.97;2.20;;;;;;;29.32;28.50;102020.09;5074649;28;20119;-80
2022/08/28 11:38:43;;;;;;;4.50;2.35;;;;;;;29.44;28.30;102009.47;5074590;28;20127;-80
2022/08/28 11:41:19;;;;;;;5.63;2.20;;;;;;;30.01;27.39;102008.44;5074524;28;20430;-80
2022/08/28 11:43:46;;;;;;;7.63;2.40;;;;;;;29.77;27.75;102002.44;5056797;28;20029;-81